sensor_id;sensor_type;location;lat;lon;timestamp;pressure;altitude;pressure_sealevel;temperature;humidity
19210;BME280;9738;51.654;14.238;2022-11-20T00:03:41;100188.25;;;-1.46;100.00
19210;BME280;9738;51.654;14.238;2022-11-20T00:06:10;100178.88;;;-1.50;100.00
19210;BME280;9738;51.654;14.238;2022-11-20T00:08:37;100183.50;;;-1.55;100.00
19210;BME280;9738;51.654;14.238;2022-11-20T00:11:08;100168.81;;;-1.58;100.00
19210;BME280;9738;51.654;14.238;2022-11-20T00:13:34;100170.56;;;-1.58;100.00
19210;BME280;9738;51.654;14.238;2022-11-20T00:16:02;100165.25;;;-1.57;100.00
19210;BME280;9738;51.654;14.238;2022-11-20T00:18:29;100165.91;;;-1.53;100.00
19210;BME280;9738;51.654;14.238;2022-11-20T00:21:03;100159.41;;;-1.62;100.00
19210;BME280;9738;51.654;14.238;2022-11-20T00:23:30;100157.88;;;-1.66;100.00
19210;BME280;9738;51.654;14.238;2022-11-20T00:25:56;100162.38;;;-1.85;100.00
19210;BME280;9738;51.654;14.238;2022-11-20T00:28:22;100158.56;;;-1.96;100.00
19210;BME280;9738;51.654;14.238;2022-11-20T00:30:48;100164.41;;;-2.08;100.00
19210;BME280;9738;51.654;14.238;2022-11-20T00:33:14;100160.16;;;-2.10;100.00
19210;BME280;9738;51.654;14.238;2022-11-20T00:35:40;100162.41;;;-2.20;100.00
19210;BME280;9738;51.654;14.238;2022-11-20T00:38:06;100156.56;;;-2.25;100.00
19210;BME280;9738;51.654;14.238;2022-11-20T00:40:32;100152.34;;;-2.28;100.00
19210;BME280;9738;51.654;14.238;2022-11-20T00:42:57;100154.13;;;-2.28;100.00
19210;BME280;9738;51.654;14.238;2022-11-20T00:45:24;100166.34;;;-2.29;100.00
19210;BME280;9738;51.654;14.238;2022-11-20T00:47:49;100167.25;;;-2.30;100.00
19210;BME280;9738;51.654;14.238;2022-11-20T00:50:15;100172.47;;;-2.30;100.00
19210;BME280;9738;51.654;14.238;2022-11-20T00:52:42;100166.66;;;-2.35;100.00
19210;BME280;9738;51.654;14.238;2022-11-20T00:55:08;100172.56;;;-2.31;100.00
19210;BME280;9738;51.654;14.238;2022-11-20T00:57:33;100173.28;;;-2.28;100.00
19210;BME280;9738;51.654;14.238;2022-11-20T01:00:00;100169.72;;;-2.27;100.00
19210;BME280;9738;51.654;14.238;2022-11-20T01:02:25;100177.34;;;-2.22;100.00
19210;BME280;9738;51.654;14.238;2022-11-20T01:04:51;100174.78;;;-2.24;100.00
19210;BME280;9738;51.654;14.238;2022-11-20T01:07:18;100189.72;;;-2.26;100.00
19210;BME280;9738;51.654;14.238;2022-11-20T01:09:44;100187.28;;;-2.29;100.00
19210;BME280;9738;51.654;14.238;2022-11-20T01:12:09;100186.25;;;-2.26;100.00
19210;BME280;9738;51.654;14.238;2022-11-20T01:14:36;100182.72;;;-2.25;100.00
19210;BME280;9738;51.654;14.238;2022-11-20T01:17:02;100194.03;;;-2.25;100.00
19210;BME280;9738;51.654;14.238;2022-11-20T01:19:27;100195.25;;;-2.32;100.00
19210;BME280;9738;51.654;14.238;2022-11-20T01:21:54;100186.88;;;-2.38;100.00
19210;BME280;9738;51.654;14.238;2022-11-20T01:24:21;100189.66;;;-2.41;100.00
19210;BME280;9738;51.654;14.238;2022-11-20T01:26:49;100188.00;;;-2.44;100.00
19210;BME280;9738;51.654;14.238;2022-11-20T01:29:19;100185.56;;;-2.47;100.00
19210;BME280;9738;51.654;14.238;2022-11-20T01:31:45;100192.06;;;-2.56;100.00
19210;BME280;9738;51.654;14.238;2022-11-20T01:34:13;100187.47;;;-2.51;100.00
19210;BME280;9738;51.654;14.238;2022-11-20T01:36:41;100192.47;;;-2.46;100.00
19210;BME280;9738;51.654;14.238;2022-11-20T01:39:14;100195.09;;;-2.46;100.00
19210;BME280;9738;51.654;14.238;2022-11-20T01:41:42;100199.56;;;-2.48;100.00
19210;BME280;9738;51.654;14.238;2022-11-20T01:44:58;100195.22;;;-2.49;100.00
19210;BME280;9738;51.654;14.238;2022-11-20T01:47:30;100185.41;;;-2.44;100.00
19210;BME280;9738;51.654;14.238;2022-11-20T01:55:14;100176.56;;;-2.41;100.00
19210;BME280;9738;51.654;14.238;2022-11-20T01:57:43;100178.41;;;-2.43;100.00
19210;BME280;9738;51.654;14.238;2022-11-20T02:00:12;100172.66;;;-2.33;100.00
19210;BME280;9738;51.654;14.238;2022-11-20T02:02:41;100176.28;;;-2.35;100.00
19210;BME280;9738;51.654;14.238;2022-11-20T02:05:19;100177.50;;;-2.25;100.00
19210;BME280;9738;51.654;14.238;2022-11-20T02:07:48;100176.81;;;-2.29;100.00
19210;BME280;9738;51.654;14.238;2022-11-20T02:10:15;100176.66;;;-2.26;100.00
19210;BME280;9738;51.654;14.238;2022-11-20T02:12:40;100175.50;;;-2.20;100.00
19210;BME280;9738;51.654;14.238;2022-11-20T02:15:25;100170.97;;;-2.34;100.00
19210;BME280;9738;51.654;14.238;2022-11-20T02:17:51;100180.56;;;-2.34;100.00
19210;BME280;9738;51.654;14.238;2022-11-20T02:20:17;100170.34;;;-2.39;100.00
19210;BME280;9738;51.654;14.238;2022-11-20T02:25:23;100164.69;;;-2.49;100.00
19210;BME280;9738;51.654;14.238;2022-11-20T02:27:50;100159.47;;;-2.49;100.00
19210;BME280;9738;51.654;14.238;2022-11-20T02:30:16;100159.84;;;-2.56;100.00
19210;BME280;9738;51.654;14.238;2022-11-20T02:32:42;100154.88;;;-2.61;100.00
19210;BME280;9738;51.654;14.238;2022-11-20T02:37:56;100158.63;;;-2.66;100.00
19210;BME280;9738;51.654;14.238;2022-11-20T02:40:23;100148.59;;;-2.76;100.00
19210;BME280;9738;51.654;14.238;2022-11-20T02:42:53;100148.91;;;-2.82;100.00
19210;BME280;9738;51.654;14.238;2022-11-20T02:45:18;100140.91;;;-2.79;100.00
19210;BME280;9738;51.654;14.238;2022-11-20T02:47:45;100145.81;;;-2.90;100.00
19210;BME280;9738;51.654;14.238;2022-11-20T02:50:11;100132.44;;;-2.84;100.00
19210;BME280;9738;51.654;14.238;2022-11-20T02:52:37;100136.97;;;-2.87;100.00
19210;BME280;9738;51.654;14.238;2022-11-20T02:55:04;100129.97;;;-2.87;100.00
19210;BME280;9738;51.654;14.238;2022-11-20T02:57:30;100128.19;;;-2.86;100.00
19210;BME280;9738;51.654;14.238;2022-11-20T02:59:55;100129.22;;;-2.89;100.00
19210;BME280;9738;51.654;14.238;2022-11-20T03:02:22;100125.75;;;-2.89;100.00
19210;BME280;9738;51.654;14.238;2022-11-20T03:04:47;100131.91;;;-2.90;100.00
19210;BME280;9738;51.654;14.238;2022-11-20T03:07:13;100136.97;;;-2.87;100.00
19210;BME280;9738;51.654;14.238;2022-11-20T03:09:40;100133.34;;;-3.02;100.00
19210;BME280;9738;51.654;14.238;2022-11-20T03:12:06;100130.09;;;-3.07;100.00
19210;BME280;9738;51.654;14.238;2022-11-20T03:14:32;100128.25;;;-3.05;100.00
19210;BME280;9738;51.654;14.238;2022-11-20T03:16:58;100122.25;;;-3.07;100.00
19210;BME280;9738;51.654;14.238;2022-11-20T03:19:24;100114.78;;;-3.15;100.00
19210;BME280;9738;51.654;14.238;2022-11-20T03:21:50;100121.59;;;-3.12;100.00
19210;BME280;9738;51.654;14.238;2022-11-20T03:24:16;100128.47;;;-3.10;100.00
19210;BME280;9738;51.654;14.238;2022-11-20T03:26:42;100123.16;;;-3.08;100.00
19210;BME280;9738;51.654;14.238;2022-11-20T03:29:08;100117.03;;;-3.07;100.00
19210;BME280;9738;51.654;14.238;2022-11-20T03:31:37;100115.97;;;-3.03;100.00
19210;BME280;9738;51.654;14.238;2022-11-20T03:34:03;100113.66;;;-3.09;100.00
19210;BME280;9738;51.654;14.238;2022-11-20T03:36:30;100123.81;;;-3.03;100.00
19210;BME280;9738;51.654;14.238;2022-11-20T03:38:56;100111.59;;;-3.03;100.00
19210;BME280;9738;51.654;14.238;2022-11-20T03:41:27;100121.03;;;-3.00;100.00
19210;BME280;9738;51.654;14.238;2022-11-20T03:43:55;100119.63;;;-3.07;100.00
19210;BME280;9738;51.654;14.238;2022-11-20T03:46:22;100116.19;;;-3.08;100.00
19210;BME280;9738;51.654;14.238;2022-11-20T03:48:48;100115.41;;;-3.10;100.00
19210;BME280;9738;51.654;14.238;2022-11-20T03:51:17;100115.69;;;-3.16;100.00
19210;BME280;9738;51.654;14.238;2022-11-20T03:53:45;100115.16;;;-3.22;100.00
19210;BME280;9738;51.654;14.238;2022-11-20T03:56:13;100103.78;;;-3.21;100.00
19210;BME280;9738;51.654;14.238;2022-11-20T03:58:40;100109.09;;;-3.23;100.00
19210;BME280;9738;51.654;14.238;2022-11-20T04:01:16;100104.69;;;-3.22;100.00
19210;BME280;9738;51.654;14.238;2022-11-20T04:03:43;100099.75;;;-3.29;100.00
19210;BME280;9738;51.654;14.238;2022-11-20T04:06:15;100100.91;;;-3.34;100.00
19210;BME280;9738;51.654;14.238;2022-11-20T04:08:42;100102.31;;;-3.46;100.00
19210;BME280;9738;51.654;14.238;2022-11-20T04:11:18;100091.19;;;-3.49;100.00
19210;BME280;9738;51.654;14.238;2022-11-20T04:13:47;100099.06;;;-3.51;100.00
19210;BME280;9738;51.654;14.238;2022-11-20T04:16:14;100107.72;;;-3.50;100.00
19210;BME280;9738;51.654;14.238;2022-11-20T04:18:40;100100.34;;;-3.60;100.00
19210;BME280;9738;51.654;14.238;2022-11-20T04:21:07;100105.47;;;-3.58;100.00
19210;BME280;9738;51.654;14.238;2022-11-20T04:23:33;100107.13;;;-3.56;100.00
19210;BME280;9738;51.654;14.238;2022-11-20T04:26:07;100094.34;;;-3.62;100.00
19210;BME280;9738;51.654;14.238;2022-11-20T04:28:34;100094.41;;;-3.63;100.00
19210;BME280;9738;51.654;14.238;2022-11-20T04:33:29;100104.50;;;-3.56;100.00
19210;BME280;9738;51.654;14.238;2022-11-20T04:36:00;100093.22;;;-3.56;100.00
19210;BME280;9738;51.654;14.238;2022-11-20T04:38:25;100091.47;;;-3.56;100.00
19210;BME280;9738;51.654;14.238;2022-11-20T04:40:56;100091.47;;;-3.56;100.00
19210;BME280;9738;51.654;14.238;2022-11-20T04:43:22;100095.69;;;-3.53;100.00
19210;BME280;9738;51.654;14.238;2022-11-20T04:45:52;100090.47;;;-3.53;100.00
19210;BME280;9738;51.654;14.238;2022-11-20T04:48:18;100090.53;;;-3.55;100.00
19210;BME280;9738;51.654;14.238;2022-11-20T04:50:45;100085.69;;;-3.62;100.00
19210;BME280;9738;51.654;14.238;2022-11-20T04:53:11;100078.53;;;-3.59;100.00
19210;BME280;9738;51.654;14.238;2022-11-20T04:55:36;100091.47;;;-3.56;100.00
19210;BME280;9738;51.654;14.238;2022-11-20T04:58:03;100090.66;;;-3.58;100.00
19210;BME280;9738;51.654;14.238;2022-11-20T05:00:28;100085.44;;;-3.58;100.00
19210;BME280;9738;51.654;14.238;2022-11-20T05:02:54;100089.75;;;-3.57;100.00
19210;BME280;9738;51.654;14.238;2022-11-20T05:05:20;100085.81;;;-3.65;100.00
19210;BME280;9738;51.654;14.238;2022-11-20T05:07:46;100089.34;;;-3.66;100.00
19210;BME280;9738;51.654;14.238;2022-11-20T05:10:12;100087.50;;;-3.64;100.00
19210;BME280;9738;51.654;14.238;2022-11-20T05:12:38;100093.56;;;-3.64;100.00
19210;BME280;9738;51.654;14.238;2022-11-20T05:15:04;100098.50;;;-3.58;100.00
19210;BME280;9738;51.654;14.238;2022-11-20T05:17:30;100101.06;;;-3.56;100.00
19210;BME280;9738;51.654;14.238;2022-11-20T05:19:56;100102.78;;;-3.57;100.00
19210;BME280;9738;51.654;14.238;2022-11-20T05:22:22;100094.63;;;-3.49;100.00
19210;BME280;9738;51.654;14.238;2022-11-20T05:24:48;100097.16;;;-3.47;100.00
19210;BME280;9738;51.654;14.238;2022-11-20T05:27:15;100086.34;;;-3.40;100.00
19210;BME280;9738;51.654;14.238;2022-11-20T05:29:40;100095.38;;;-3.28;100.00
19210;BME280;9738;51.654;14.238;2022-11-20T05:32:06;100093.16;;;-3.18;100.00
19210;BME280;9738;51.654;14.238;2022-11-20T05:34:35;100089.22;;;-3.08;100.00
19210;BME280;9738;51.654;14.238;2022-11-20T05:37:02;100090.69;;;-3.03;100.00
19210;BME280;9738;51.654;14.238;2022-11-20T05:39:28;100090.59;;;-3.01;100.00
19210;BME280;9738;51.654;14.238;2022-11-20T05:41:54;100089.63;;;-2.98;100.00
19210;BME280;9738;51.654;14.238;2022-11-20T05:44:39;100084.03;;;-2.91;100.00
19210;BME280;9738;51.654;14.238;2022-11-20T05:47:05;100083.59;;;-3.01;100.00
19210;BME280;9738;51.654;14.238;2022-11-20T05:49:31;100082.47;;;-2.95;100.00
19210;BME280;9738;51.654;14.238;2022-11-20T05:51:57;100080.91;;;-2.99;100.00
19210;BME280;9738;51.654;14.238;2022-11-20T05:54:24;100080.91;;;-2.99;100.00
19210;BME280;9738;51.654;14.238;2022-11-20T05:56:50;100073.25;;;-3.02;100.00
19210;BME280;9738;51.654;14.238;2022-11-20T05:59:15;100077.53;;;-3.01;100.00
19210;BME280;9738;51.654;14.238;2022-11-20T06:01:42;100079.22;;;-3.00;100.00
19210;BME280;9738;51.654;14.238;2022-11-20T06:04:07;100076.47;;;-2.97;100.00
19210;BME280;9738;51.654;14.238;2022-11-20T06:06:33;100075.56;;;-2.96;100.00
19210;BME280;9738;51.654;14.238;2022-11-20T06:08:59;100080.63;;;-2.93;100.00
19210;BME280;9738;51.654;14.238;2022-11-20T06:11:25;100082.47;;;-2.95;100.00
19210;BME280;9738;51.654;14.238;2022-11-20T06:13:51;100084.16;;;-2.94;100.00
19210;BME280;9738;51.654;14.238;2022-11-20T06:16:19;100074.94;;;-3.01;100.00
19210;BME280;9738;51.654;14.238;2022-11-20T06:18:46;100071.84;;;-3.09;100.00
19210;BME280;9738;51.654;14.238;2022-11-20T06:21:15;100075.75;;;-3.18;100.00
19210;BME280;9738;51.654;14.238;2022-11-20T06:23:43;100079.34;;;-3.20;100.00
19210;BME280;9738;51.654;14.238;2022-11-20T06:26:11;100077.19;;;-3.12;100.00
19210;BME280;9738;51.654;14.238;2022-11-20T06:28:37;100078.03;;;-3.12;100.00
19210;BME280;9738;51.654;14.238;2022-11-20T06:31:05;100078.28;;;-3.16;100.00
19210;BME280;9738;51.654;14.238;2022-11-20T06:33:31;100075.69;;;-3.16;100.00
19210;BME280;9738;51.654;14.238;2022-11-20T06:35:58;100081.03;;;-3.19;100.00
19210;BME280;9738;51.654;14.238;2022-11-20T06:38:25;100071.81;;;-3.27;100.00
19210;BME280;9738;51.654;14.238;2022-11-20T06:40:51;100078.16;;;-3.32;100.00
19210;BME280;9738;51.654;14.238;2022-11-20T06:43:17;100081.78;;;-3.35;100.00
19210;BME280;9738;51.654;14.238;2022-11-20T06:45:43;100085.31;;;-3.36;100.00
19210;BME280;9738;51.654;14.238;2022-11-20T06:48:09;100080.00;;;-3.34;100.00
19210;BME280;9738;51.654;14.238;2022-11-20T06:50:38;100084.31;;;-3.33;100.00
19210;BME280;9738;51.654;14.238;2022-11-20T06:53:05;100081.00;;;-3.37;100.00
19210;BME280;9738;51.654;14.238;2022-11-20T06:55:31;100089.13;;;-3.43;100.00
19210;BME280;9738;51.654;14.238;2022-11-20T06:57:58;100078.44;;;-3.38;100.00
19210;BME280;9738;51.654;14.238;2022-11-20T07:00:24;100077.59;;;-3.39;100.00
19210;BME280;9738;51.654;14.238;2022-11-20T07:02:50;100076.41;;;-3.50;100.00
19210;BME280;9738;51.654;14.238;2022-11-20T07:05:17;100079.72;;;-3.47;100.00
19210;BME280;9738;51.654;14.238;2022-11-20T07:07:43;100081.41;;;-3.46;100.00
19210;BME280;9738;51.654;14.238;2022-11-20T07:10:09;100077.19;;;-3.48;100.00
19210;BME280;9738;51.654;14.238;2022-11-20T07:12:35;100076.69;;;-3.57;100.00
19210;BME280;9738;51.654;14.238;2022-11-20T07:15:02;100077.69;;;-3.59;100.00
19210;BME280;9738;51.654;14.238;2022-11-20T07:17:27;100081.34;;;-3.63;100.00
19210;BME280;9738;51.654;14.238;2022-11-20T07:19:53;100083.38;;;-3.70;100.00
19210;BME280;9738;51.654;14.238;2022-11-20T07:22:20;100086.72;;;-3.66;100.00
19210;BME280;9738;51.654;14.238;2022-11-20T07:24:48;100084.25;;;-3.69;100.00
19210;BME280;9738;51.654;14.238;2022-11-20T07:27:13;100077.59;;;-3.76;100.00
19210;BME280;9738;51.654;14.238;2022-11-20T07:29:40;100084.25;;;-3.69;100.00
19210;BME280;9738;51.654;14.238;2022-11-20T07:32:05;100076.94;;;-3.61;100.00
19210;BME280;9738;51.654;14.238;2022-11-20T07:34:31;100068.72;;;-3.54;100.00
19210;BME280;9738;51.654;14.238;2022-11-20T07:36:57;100065.91;;;-3.49;100.00
19210;BME280;9738;51.654;14.238;2022-11-20T07:39:23;100078.31;;;-3.35;100.00
19210;BME280;9738;51.654;14.238;2022-11-20T07:41:49;100075.53;;;-3.32;100.00
19210;BME280;9738;51.654;14.238;2022-11-20T07:44:15;100066.16;;;-3.17;100.00
19210;BME280;9738;51.654;14.238;2022-11-20T07:46:41;100065.03;;;-2.94;100.00
19210;BME280;9738;51.654;14.238;2022-11-20T07:49:07;100061.41;;;-2.75;100.00
19210;BME280;9738;51.654;14.238;2022-11-20T07:51:33;100061.28;;;-2.54;100.00
19210;BME280;9738;51.654;14.238;2022-11-20T07:53:59;100050.34;;;-2.28;100.00
19210;BME280;9738;51.654;14.238;2022-11-20T07:56:24;100046.91;;;-2.12;100.00
19210;BME280;9738;51.654;14.238;2022-11-20T07:58:51;100050.41;;;-1.80;100.00
19210;BME280;9738;51.654;14.238;2022-11-20T08:01:16;100046.56;;;-1.57;100.00
19210;BME280;9738;51.654;14.238;2022-11-20T08:03:42;100047.56;;;-1.28;100.00
19210;BME280;9738;51.654;14.238;2022-11-20T08:06:08;100053.53;;;-1.11;100.00
19210;BME280;9738;51.654;14.238;2022-11-20T08:08:34;100050.47;;;-0.87;100.00
19210;BME280;9738;51.654;14.238;2022-11-20T08:11:00;100043.66;;;-0.75;100.00
19210;BME280;9738;51.654;14.238;2022-11-20T08:13:45;100046.59;;;-0.51;100.00
19210;BME280;9738;51.654;14.238;2022-11-20T08:16:29;100046.53;;;-0.50;100.00
19210;BME280;9738;51.654;14.238;2022-11-20T08:18:56;100045.69;;;-0.50;100.00
19210;BME280;9738;51.654;14.238;2022-11-20T08:21:21;100046.91;;;-0.56;100.00
19210;BME280;9738;51.654;14.238;2022-11-20T08:23:47;100037.22;;;-0.70;100.00
19210;BME280;9738;51.654;14.238;2022-11-20T08:26:13;100038.56;;;-0.63;100.00
19210;BME280;9738;51.654;14.238;2022-11-20T08:28:39;100046.00;;;-0.71;100.00
19210;BME280;9738;51.654;14.238;2022-11-20T08:31:05;100035.50;;;-0.71;100.00
19210;BME280;9738;51.654;14.238;2022-11-20T08:33:31;100036.44;;;-0.72;100.00
19210;BME280;9738;51.654;14.238;2022-11-20T08:36:02;100033.53;;;-0.82;100.00
19210;BME280;9738;51.654;14.238;2022-11-20T08:38:29;100030.19;;;-0.69;100.00
19210;BME280;9738;51.654;14.238;2022-11-20T08:41:00;100028.81;;;-0.61;100.00
19210;BME280;9738;51.654;14.238;2022-11-20T08:43:44;100031.72;;;-0.51;100.00
19210;BME280;9738;51.654;14.238;2022-11-20T08:46:11;100024.53;;;-0.33;100.00
19210;BME280;9738;51.654;14.238;2022-11-20T08:48:36;100023.31;;;-0.28;100.00
19210;BME280;9738;51.654;14.238;2022-11-20T08:51:02;100028.09;;;-0.20;100.00
19210;BME280;9738;51.654;14.238;2022-11-20T08:53:29;100022.19;;;-0.09;100.00
19210;BME280;9738;51.654;14.238;2022-11-20T08:55:56;100030.28;;;-0.12;100.00
19210;BME280;9738;51.654;14.238;2022-11-20T08:58:22;100036.91;;;-0.07;100.00
19210;BME280;9738;51.654;14.238;2022-11-20T09:00:48;100030.91;;;-0.09;100.00
19210;BME280;9738;51.654;14.238;2022-11-20T09:03:14;100032.16;;;0.00;100.00
19210;BME280;9738;51.654;14.238;2022-11-20T09:05:40;100035.41;;;0.04;100.00
19210;BME280;9738;51.654;14.238;2022-11-20T09:08:06;100023.59;;;0.11;100.00
19210;BME280;9738;51.654;14.238;2022-11-20T09:10:32;100022.84;;;0.09;100.00
19210;BME280;9738;51.654;14.238;2022-11-20T09:12:58;100022.66;;;0.12;100.00
19210;BME280;9738;51.654;14.238;2022-11-20T09:15:25;100022.38;;;0.16;100.00
19210;BME280;9738;51.654;14.238;2022-11-20T09:17:59;100021.75;;;0.13;100.00
19210;BME280;9738;51.654;14.238;2022-11-20T09:20:27;100015.63;;;0.12;100.00
19210;BME280;9738;51.654;14.238;2022-11-20T09:22:54;100023.13;;;0.18;100.00
19210;BME280;9738;51.654;14.238;2022-11-20T09:25:20;100017.78;;;0.20;100.00
19210;BME280;9738;51.654;14.238;2022-11-20T09:27:47;100016.50;;;0.13;100.00
19210;BME280;9738;51.654;14.238;2022-11-20T09:30:13;100010.28;;;-0.01;100.00
19210;BME280;9738;51.654;14.238;2022-11-20T09:32:39;100007.50;;;-0.12;100.00
19210;BME280;9738;51.654;14.238;2022-11-20T09:35:06;100004.78;;;-0.10;100.00
19210;BME280;9738;51.654;14.238;2022-11-20T09:37:32;100004.88;;;-0.12;100.00
19210;BME280;9738;51.654;14.238;2022-11-20T09:39:58;100002.88;;;0.06;100.00
19210;BME280;9738;51.654;14.238;2022-11-20T09:42:41;99999.75;;;0.28;100.00
19210;BME280;9738;51.654;14.238;2022-11-20T09:45:28;99992.94;;;0.52;100.00
19210;BME280;9738;51.654;14.238;2022-11-20T09:48:20;99991.16;;;0.80;100.00
19210;BME280;9738;51.654;14.238;2022-11-20T09:50:47;99989.56;;;1.17;100.00
19210;BME280;9738;51.654;14.238;2022-11-20T09:55:54;99986.22;;;1.28;100.00
19210;BME280;9738;51.654;14.238;2022-11-20T09:58:34;99979.28;;;1.52;100.00
19210;BME280;9738;51.654;14.238;2022-11-20T10:01:21;99977.16;;;1.57;100.00
19210;BME280;9738;51.654;14.238;2022-11-20T10:03:58;99960.13;;;1.50;69.94
19210;BME280;9738;51.654;14.238;2022-11-20T10:06:31;99965.06;;;1.42;69.91
19210;BME280;9738;51.654;14.238;2022-11-20T10:09:11;99977.06;;;1.46;71.20
19210;BME280;9738;51.654;14.238;2022-11-20T10:12:02;99968.13;;;1.36;69.30
19210;BME280;9738;51.654;14.238;2022-11-20T10:17:18;99960.97;;;1.63;70.12
19210;BME280;9738;51.654;14.238;2022-11-20T10:20:16;99954.38;;;2.07;68.90
19210;BME280;9738;51.654;14.238;2022-11-20T10:25:20;99956.88;;;2.09;65.36
19210;BME280;9738;51.654;14.238;2022-11-20T10:30:27;99955.72;;;2.13;66.29
19210;BME280;9738;51.654;14.238;2022-11-20T10:33:04;99962.47;;;2.17;65.55
19210;BME280;9738;51.654;14.238;2022-11-20T10:38:37;99963.22;;;2.06;64.93
19210;BME280;9738;51.654;14.238;2022-11-20T10:41:05;99950.19;;;1.92;65.21
19210;BME280;9738;51.654;14.238;2022-11-20T10:43:54;99950.59;;;1.99;65.26
19210;BME280;9738;51.654;14.238;2022-11-20T10:46:23;99952.00;;;2.15;65.09
19210;BME280;9738;51.654;14.238;2022-11-20T10:48:51;99948.94;;;2.22;64.76
19210;BME280;9738;51.654;14.238;2022-11-20T10:54:17;99952.31;;;2.48;64.63
19210;BME280;9738;51.654;14.238;2022-11-20T10:56:47;99952.81;;;2.29;64.18
19210;BME280;9738;51.654;14.238;2022-11-20T11:02:20;99942.34;;;2.64;64.38
19210;BME280;9738;51.654;14.238;2022-11-20T11:04:50;99946.56;;;2.66;64.97
19210;BME280;9738;51.654;14.238;2022-11-20T11:07:34;99929.94;;;2.77;64.18
19210;BME280;9738;51.654;14.238;2022-11-20T11:10:13;99936.78;;;2.80;65.19
19210;BME280;9738;51.654;14.238;2022-11-20T11:12:46;99939.38;;;3.04;63.22
19210;BME280;9738;51.654;14.238;2022-11-20T11:15:37;99934.22;;;3.02;64.08
19210;BME280;9738;51.654;14.238;2022-11-20T11:18:03;99937.38;;;3.07;62.46
19210;BME280;9738;51.654;14.238;2022-11-20T11:20:29;99932.31;;;3.04;62.45
19210;BME280;9738;51.654;14.238;2022-11-20T11:22:57;99924.50;;;3.03;63.33
19210;BME280;9738;51.654;14.238;2022-11-20T11:25:32;99921.00;;;2.91;62.51
19210;BME280;9738;51.654;14.238;2022-11-20T11:30:43;99909.50;;;2.57;62.86
19210;BME280;9738;51.654;14.238;2022-11-20T11:33:12;99916.69;;;2.55;64.40
19210;BME280;9738;51.654;14.238;2022-11-20T11:35:46;99909.75;;;2.41;64.05
19210;BME280;9738;51.654;14.238;2022-11-20T11:38:16;99900.63;;;2.58;63.30
19210;BME280;9738;51.654;14.238;2022-11-20T11:40:46;99905.69;;;2.61;63.43
19210;BME280;9738;51.654;14.238;2022-11-20T11:43:19;99891.22;;;2.42;62.69
19210;BME280;9738;51.654;14.238;2022-11-20T11:48:57;99890.31;;;2.55;63.17
19210;BME280;9738;51.654;14.238;2022-11-20T11:51:26;99888.72;;;2.76;63.12
19210;BME280;9738;51.654;14.238;2022-11-20T11:53:57;99895.53;;;2.67;61.95
19210;BME280;9738;51.654;14.238;2022-11-20T11:56:24;99890.97;;;2.46;62.57
19210;BME280;9738;51.654;14.238;2022-11-20T11:58:51;99887.38;;;2.70;62.15
19210;BME280;9738;51.654;14.238;2022-11-20T12:01:42;99875.66;;;2.86;62.25
19210;BME280;9738;51.654;14.238;2022-11-20T12:10:00;99871.63;;;2.93;62.35
19210;BME280;9738;51.654;14.238;2022-11-20T12:12:32;99869.56;;;2.96;61.53
19210;BME280;9738;51.654;14.238;2022-11-20T12:15:02;99868.53;;;2.99;61.50
19210;BME280;9738;51.654;14.238;2022-11-20T12:17:30;99865.59;;;2.91;61.56
19210;BME280;9738;51.654;14.238;2022-11-20T12:19:56;99866.53;;;2.79;62.00
19210;BME280;9738;51.654;14.238;2022-11-20T12:22:43;99862.72;;;2.83;62.78
19210;BME280;9738;51.654;14.238;2022-11-20T12:30:58;99863.81;;;2.80;63.00
19210;BME280;9738;51.654;14.238;2022-11-20T12:33:51;99867.28;;;2.92;63.97
19210;BME280;9738;51.654;14.238;2022-11-20T12:36:36;99865.56;;;2.80;63.65
19210;BME280;9738;51.654;14.238;2022-11-20T12:39:10;99863.16;;;2.41;64.72
19210;BME280;9738;51.654;14.238;2022-11-20T12:42:02;99858.91;;;2.28;65.26
19210;BME280;9738;51.654;14.238;2022-11-20T12:45:05;99858.34;;;2.35;66.92
19210;BME280;9738;51.654;14.238;2022-11-20T12:50:26;99855.31;;;2.29;67.77
19210;BME280;9738;51.654;14.238;2022-11-20T12:53:22;99850.63;;;2.21;67.76
19210;BME280;9738;51.654;14.238;2022-11-20T12:56:05;99850.59;;;1.97;69.09
19210;BME280;9738;51.654;14.238;2022-11-20T13:01:30;99839.72;;;1.41;72.88
19210;BME280;9738;51.654;14.238;2022-11-20T13:04:33;99841.00;;;1.23;73.65
19210;BME280;9738;51.654;14.238;2022-11-20T13:07:11;99838.56;;;1.20;74.47
19210;BME280;9738;51.654;14.238;2022-11-20T13:09:45;99844.38;;;1.25;75.22
19210;BME280;9738;51.654;14.238;2022-11-20T13:12:43;99834.06;;;1.34;75.86
19210;BME280;9738;51.654;14.238;2022-11-20T13:15:27;99835.53;;;1.26;74.47
19210;BME280;9738;51.654;14.238;2022-11-20T13:17:59;99827.31;;;1.18;74.27
19210;BME280;9738;51.654;14.238;2022-11-20T13:20:27;99833.44;;;1.05;74.62
19210;BME280;9738;51.654;14.238;2022-11-20T13:22:55;99837.44;;;1.11;74.67
19210;BME280;9738;51.654;14.238;2022-11-20T13:25:33;99834.59;;;1.01;75.89
19210;BME280;9738;51.654;14.238;2022-11-20T13:28:03;99826.28;;;0.95;77.04
19210;BME280;9738;51.654;14.238;2022-11-20T13:30:31;99827.75;;;0.86;77.63
19210;BME280;9738;51.654;14.238;2022-11-20T13:33:03;99826.50;;;0.92;78.74
19210;BME280;9738;51.654;14.238;2022-11-20T13:35:34;99829.00;;;0.93;77.77
19210;BME280;9738;51.654;14.238;2022-11-20T13:38:09;99821.13;;;0.93;76.41
19210;BME280;9738;51.654;14.238;2022-11-20T13:40:59;99822.31;;;1.02;76.60
19210;BME280;9738;51.654;14.238;2022-11-20T13:43:34;99826.09;;;0.98;76.64
19210;BME280;9738;51.654;14.238;2022-11-20T13:46:05;99822.91;;;1.05;77.02
19210;BME280;9738;51.654;14.238;2022-11-20T13:48:39;99834.09;;;0.96;77.24
19210;BME280;9738;51.654;14.238;2022-11-20T13:51:15;99830.91;;;0.91;76.96
19210;BME280;9738;51.654;14.238;2022-11-20T13:54:09;99828.59;;;0.74;76.97
19210;BME280;9738;51.654;14.238;2022-11-20T13:59:33;99835.44;;;0.76;77.40
19210;BME280;9738;51.654;14.238;2022-11-20T14:02:02;99832.47;;;0.81;77.84